Portada
METAR-TAF:

METAR-TAF

Aeroports :

Sokoto, Nigèria

latitud: 13-01N, longitud: 005-15E, altitud: 351 m

Observació

L'informe es va fer fa 22 hores i 14 minuts, a les 10:00 UTC
Vent 12 kt del Oest
Temperatura 33°C
Humitat 53%
Pressió 1014 hPa
Visibilitat 10 km o més
sense núvols per sota de 1500 mi sense presència de cumulonimbus.

METAR: DNSO 191000Z 28012KT CAVOK 33/22 Q1014

Hora: 09:14 (08:14 UTC)

Pronòstic

L'informe es va fer fa 3 hores i 14 minuts, a les 05:00 UTC
Pronòstic vàlid del 20 a les 06 UTC al 21 a les 12 UTC
Vent 10 kt del Oest
Visibilitat 10 km o més
sense núvols per sota de 1500 mi sense presència de cumulonimbus.
Temporalment
l' 20 a les 16 UTC al 20 a les 22 UTC
Núvols disperses a una alçada de 1200 ft
Escasses núvols a una alçada de 2000 ft, Cumulonimbus.
tempesta

TAF: DNSO 200500Z 2006/2112 27010KT CAVOK TEMPO 2016/2022 TS SCT012 FEW020CB

Observacions i pronòstics meteorològics de més de 4000 aeroports (METAR i TAF).

Les estacions disponibles són els punts grocs i vermells al mapa.

Posi el ratolí al punt desitjat per veure el nom de l'estació.

Feu clic per veure les observacions i els pronòstics meteorològics.

Per canviar el mapa: feu clic els botons verds amb una creu de color negre per apropar; al botó verd amb un guió per allunyar la imatge; o en les fletxes verdes per a mapes adjacents.


METAR-TAF: